sensor_id;sensor_type;location;lat;lon;timestamp;P1;durP1;ratioP1;P2;durP2;ratioP2
21192;SDS011;10754;51.106;7.164;2023-01-10T00:00:22;3.10;;;2.10;;
21192;SDS011;10754;51.106;7.164;2023-01-10T00:02:49;3.47;;;1.93;;
21192;SDS011;10754;51.106;7.164;2023-01-10T00:05:15;6.43;;;2.33;;
21192;SDS011;10754;51.106;7.164;2023-01-10T00:07:41;5.73;;;2.43;;
21192;SDS011;10754;51.106;7.164;2023-01-10T00:10:07;3.47;;;2.10;;
21192;SDS011;10754;51.106;7.164;2023-01-10T00:12:33;4.37;;;2.10;;
21192;SDS011;10754;51.106;7.164;2023-01-10T00:15:17;3.93;;;1.93;;
21192;SDS011;10754;51.106;7.164;2023-01-10T00:17:42;3.97;;;2.20;;
21192;SDS011;10754;51.106;7.164;2023-01-10T00:20:08;3.63;;;1.67;;
21192;SDS011;10754;51.106;7.164;2023-01-10T00:22:34;3.10;;;1.77;;
21192;SDS011;10754;51.106;7.164;2023-01-10T00:25:00;4.40;;;2.37;;
21192;SDS011;10754;51.106;7.164;2023-01-10T00:27:25;3.93;;;2.00;;
21192;SDS011;10754;51.106;7.164;2023-01-10T00:29:51;3.00;;;2.37;;
21192;SDS011;10754;51.106;7.164;2023-01-10T00:32:17;6.27;;;2.90;;
21192;SDS011;10754;51.106;7.164;2023-01-10T00:34:43;3.33;;;1.80;;
21192;SDS011;10754;51.106;7.164;2023-01-10T00:37:09;4.97;;;2.00;;
21192;SDS011;10754;51.106;7.164;2023-01-10T00:39:35;5.67;;;2.73;;
21192;SDS011;10754;51.106;7.164;2023-01-10T00:42:00;3.20;;;2.10;;
21192;SDS011;10754;51.106;7.164;2023-01-10T00:44:44;7.10;;;2.17;;
21192;SDS011;10754;51.106;7.164;2023-01-10T00:47:11;5.20;;;2.47;;
21192;SDS011;10754;51.106;7.164;2023-01-10T00:49:37;4.93;;;2.27;;
21192;SDS011;10754;51.106;7.164;2023-01-10T00:52:03;3.17;;;1.63;;
21192;SDS011;10754;51.106;7.164;2023-01-10T00:54:29;5.70;;;2.20;;
21192;SDS011;10754;51.106;7.164;2023-01-10T00:56:54;4.43;;;2.10;;
21192;SDS011;10754;51.106;7.164;2023-01-10T00:59:20;5.10;;;1.77;;
21192;SDS011;10754;51.106;7.164;2023-01-10T01:01:46;6.83;;;2.27;;
21192;SDS011;10754;51.106;7.164;2023-01-10T01:04:12;2.87;;;1.43;;
21192;SDS011;10754;51.106;7.164;2023-01-10T01:06:38;5.90;;;2.10;;
21192;SDS011;10754;51.106;7.164;2023-01-10T01:09:03;6.50;;;2.20;;
21192;SDS011;10754;51.106;7.164;2023-01-10T01:11:29;4.30;;;2.00;;
21192;SDS011;10754;51.106;7.164;2023-01-10T01:13:54;3.93;;;1.90;;
21192;SDS011;10754;51.106;7.164;2023-01-10T01:16:20;4.70;;;1.43;;
21192;SDS011;10754;51.106;7.164;2023-01-10T01:18:46;4.60;;;2.00;;
21192;SDS011;10754;51.106;7.164;2023-01-10T01:21:11;4.90;;;2.10;;
21192;SDS011;10754;51.106;7.164;2023-01-10T01:23:37;5.03;;;1.80;;
21192;SDS011;10754;51.106;7.164;2023-01-10T01:26:03;5.50;;;2.00;;
21192;SDS011;10754;51.106;7.164;2023-01-10T01:28:30;4.17;;;1.40;;
21192;SDS011;10754;51.106;7.164;2023-01-10T01:30:56;3.40;;;1.93;;
21192;SDS011;10754;51.106;7.164;2023-01-10T01:33:21;5.10;;;1.80;;
21192;SDS011;10754;51.106;7.164;2023-01-10T01:35:47;5.27;;;1.73;;
21192;SDS011;10754;51.106;7.164;2023-01-10T01:38:14;4.27;;;1.70;;
21192;SDS011;10754;51.106;7.164;2023-01-10T01:40:40;7.47;;;1.80;;
21192;SDS011;10754;51.106;7.164;2023-01-10T01:43:23;6.57;;;2.07;;
21192;SDS011;10754;51.106;7.164;2023-01-10T01:45:50;6.77;;;2.10;;
21192;SDS011;10754;51.106;7.164;2023-01-10T01:48:30;5.00;;;2.20;;
21192;SDS011;10754;51.106;7.164;2023-01-10T01:53:39;4.20;;;1.70;;
21192;SDS011;10754;51.106;7.164;2023-01-10T01:56:14;4.57;;;1.53;;
21192;SDS011;10754;51.106;7.164;2023-01-10T01:58:53;7.33;;;1.80;;
21192;SDS011;10754;51.106;7.164;2023-01-10T02:01:26;5.30;;;2.10;;
21192;SDS011;10754;51.106;7.164;2023-01-10T02:03:55;4.77;;;1.90;;
21192;SDS011;10754;51.106;7.164;2023-01-10T02:06:31;4.87;;;1.90;;
21192;SDS011;10754;51.106;7.164;2023-01-10T02:09:02;4.57;;;1.47;;
21192;SDS011;10754;51.106;7.164;2023-01-10T02:11:37;5.43;;;1.80;;
21192;SDS011;10754;51.106;7.164;2023-01-10T02:14:03;6.00;;;2.07;;
21192;SDS011;10754;51.106;7.164;2023-01-10T02:16:30;6.30;;;2.27;;
21192;SDS011;10754;51.106;7.164;2023-01-10T02:18:56;5.47;;;1.73;;
21192;SDS011;10754;51.106;7.164;2023-01-10T02:21:41;5.17;;;2.03;;
21192;SDS011;10754;51.106;7.164;2023-01-10T02:30:45;6.20;;;2.23;;
21192;SDS011;10754;51.106;7.164;2023-01-10T02:33:19;6.70;;;2.23;;
21192;SDS011;10754;51.106;7.164;2023-01-10T02:41:30;4.43;;;1.90;;
21192;SDS011;10754;51.106;7.164;2023-01-10T02:44:14;7.20;;;1.97;;
21192;SDS011;10754;51.106;7.164;2023-01-10T02:47:01;7.23;;;2.50;;
21192;SDS011;10754;51.106;7.164;2023-01-10T02:49:28;3.77;;;1.80;;
21192;SDS011;10754;51.106;7.164;2023-01-10T02:51:54;6.57;;;2.20;;
21192;SDS011;10754;51.106;7.164;2023-01-10T02:54:24;5.97;;;2.07;;
21192;SDS011;10754;51.106;7.164;2023-01-10T02:59:44;4.50;;;2.10;;
21192;SDS011;10754;51.106;7.164;2023-01-10T03:02:35;6.43;;;2.40;;
21192;SDS011;10754;51.106;7.164;2023-01-10T03:08:05;5.23;;;1.60;;
21192;SDS011;10754;51.106;7.164;2023-01-10T03:10:52;5.30;;;1.73;;
21192;SDS011;10754;51.106;7.164;2023-01-10T03:13:24;6.17;;;2.13;;
21192;SDS011;10754;51.106;7.164;2023-01-10T03:15:51;8.30;;;2.50;;
21192;SDS011;10754;51.106;7.164;2023-01-10T03:18:19;5.20;;;1.97;;
21192;SDS011;10754;51.106;7.164;2023-01-10T03:20:48;5.23;;;1.77;;
21192;SDS011;10754;51.106;7.164;2023-01-10T03:23:16;5.53;;;2.03;;
21192;SDS011;10754;51.106;7.164;2023-01-10T03:25:44;7.67;;;2.20;;
21192;SDS011;10754;51.106;7.164;2023-01-10T03:28:15;5.23;;;2.10;;
21192;SDS011;10754;51.106;7.164;2023-01-10T03:30:53;5.87;;;1.90;;
21192;SDS011;10754;51.106;7.164;2023-01-10T03:33:23;7.07;;;2.10;;
21192;SDS011;10754;51.106;7.164;2023-01-10T03:36:10;4.93;;;1.80;;
21192;SDS011;10754;51.106;7.164;2023-01-10T03:38:54;7.40;;;2.00;;
21192;SDS011;10754;51.106;7.164;2023-01-10T03:41:36;4.90;;;1.80;;
21192;SDS011;10754;51.106;7.164;2023-01-10T03:44:15;7.30;;;2.00;;
21192;SDS011;10754;51.106;7.164;2023-01-10T03:49:55;8.07;;;2.57;;
21192;SDS011;10754;51.106;7.164;2023-01-10T03:52:25;5.20;;;1.63;;
21192;SDS011;10754;51.106;7.164;2023-01-10T03:54:51;7.23;;;2.30;;
21192;SDS011;10754;51.106;7.164;2023-01-10T03:57:19;5.23;;;1.57;;
21192;SDS011;10754;51.106;7.164;2023-01-10T03:59:47;4.83;;;2.23;;
21192;SDS011;10754;51.106;7.164;2023-01-10T04:02:17;8.17;;;1.90;;
21192;SDS011;10754;51.106;7.164;2023-01-10T04:04:42;5.30;;;2.20;;
21192;SDS011;10754;51.106;7.164;2023-01-10T04:07:08;5.80;;;2.30;;
21192;SDS011;10754;51.106;7.164;2023-01-10T04:09:33;6.27;;;2.17;;
21192;SDS011;10754;51.106;7.164;2023-01-10T04:11:59;5.77;;;2.27;;
21192;SDS011;10754;51.106;7.164;2023-01-10T04:14:24;5.47;;;1.90;;
21192;SDS011;10754;51.106;7.164;2023-01-10T04:16:51;5.13;;;2.10;;
21192;SDS011;10754;51.106;7.164;2023-01-10T04:19:17;7.80;;;2.47;;
21192;SDS011;10754;51.106;7.164;2023-01-10T04:21:42;7.00;;;2.50;;
21192;SDS011;10754;51.106;7.164;2023-01-10T04:24:08;6.60;;;2.20;;
21192;SDS011;10754;51.106;7.164;2023-01-10T04:26:34;6.40;;;1.97;;
21192;SDS011;10754;51.106;7.164;2023-01-10T04:28:59;8.03;;;2.13;;
21192;SDS011;10754;51.106;7.164;2023-01-10T04:31:25;6.93;;;2.40;;
21192;SDS011;10754;51.106;7.164;2023-01-10T04:33:51;6.27;;;2.07;;
21192;SDS011;10754;51.106;7.164;2023-01-10T04:36:16;6.70;;;2.27;;
21192;SDS011;10754;51.106;7.164;2023-01-10T04:38:42;6.00;;;2.30;;
21192;SDS011;10754;51.106;7.164;2023-01-10T04:41:07;7.07;;;2.10;;
21192;SDS011;10754;51.106;7.164;2023-01-10T04:43:33;8.43;;;2.80;;
21192;SDS011;10754;51.106;7.164;2023-01-10T04:45:59;5.73;;;2.50;;
21192;SDS011;10754;51.106;7.164;2023-01-10T04:48:24;8.07;;;2.50;;
21192;SDS011;10754;51.106;7.164;2023-01-10T04:50:51;7.33;;;2.47;;
21192;SDS011;10754;51.106;7.164;2023-01-10T04:53:17;8.40;;;2.40;;
21192;SDS011;10754;51.106;7.164;2023-01-10T04:55:43;5.03;;;1.80;;
21192;SDS011;10754;51.106;7.164;2023-01-10T04:58:09;5.67;;;1.90;;
21192;SDS011;10754;51.106;7.164;2023-01-10T05:00:35;4.93;;;2.50;;
21192;SDS011;10754;51.106;7.164;2023-01-10T05:03:00;6.77;;;1.90;;
21192;SDS011;10754;51.106;7.164;2023-01-10T05:05:26;7.87;;;2.70;;
21192;SDS011;10754;51.106;7.164;2023-01-10T05:07:52;7.10;;;2.37;;
21192;SDS011;10754;51.106;7.164;2023-01-10T05:10:18;7.30;;;2.57;;
21192;SDS011;10754;51.106;7.164;2023-01-10T05:12:44;7.43;;;2.53;;
21192;SDS011;10754;51.106;7.164;2023-01-10T05:15:10;7.33;;;2.60;;
21192;SDS011;10754;51.106;7.164;2023-01-10T05:17:36;6.83;;;2.93;;
21192;SDS011;10754;51.106;7.164;2023-01-10T05:20:02;6.80;;;2.13;;
21192;SDS011;10754;51.106;7.164;2023-01-10T05:22:27;8.13;;;2.73;;
21192;SDS011;10754;51.106;7.164;2023-01-10T05:24:53;5.23;;;2.30;;
21192;SDS011;10754;51.106;7.164;2023-01-10T05:27:19;7.67;;;2.87;;
21192;SDS011;10754;51.106;7.164;2023-01-10T05:29:44;6.70;;;2.20;;
21192;SDS011;10754;51.106;7.164;2023-01-10T05:32:10;8.93;;;2.83;;
21192;SDS011;10754;51.106;7.164;2023-01-10T05:34:35;7.77;;;2.10;;
21192;SDS011;10754;51.106;7.164;2023-01-10T05:37:01;8.17;;;3.00;;
21192;SDS011;10754;51.106;7.164;2023-01-10T05:39:26;7.67;;;2.53;;
21192;SDS011;10754;51.106;7.164;2023-01-10T05:41:52;10.73;;;3.67;;
21192;SDS011;10754;51.106;7.164;2023-01-10T05:44:17;8.90;;;2.90;;
21192;SDS011;10754;51.106;7.164;2023-01-10T05:46:43;7.80;;;2.40;;
21192;SDS011;10754;51.106;7.164;2023-01-10T05:49:08;9.63;;;2.80;;
21192;SDS011;10754;51.106;7.164;2023-01-10T05:51:34;7.53;;;2.47;;
21192;SDS011;10754;51.106;7.164;2023-01-10T05:53:59;6.57;;;2.60;;
21192;SDS011;10754;51.106;7.164;2023-01-10T05:56:25;7.07;;;2.83;;
21192;SDS011;10754;51.106;7.164;2023-01-10T05:58:50;10.20;;;3.23;;
21192;SDS011;10754;51.106;7.164;2023-01-10T06:01:16;10.37;;;2.40;;
21192;SDS011;10754;51.106;7.164;2023-01-10T06:03:41;10.27;;;2.93;;
21192;SDS011;10754;51.106;7.164;2023-01-10T06:06:07;7.43;;;2.93;;
21192;SDS011;10754;51.106;7.164;2023-01-10T06:08:33;8.37;;;2.63;;
21192;SDS011;10754;51.106;7.164;2023-01-10T06:11:01;6.37;;;2.33;;
21192;SDS011;10754;51.106;7.164;2023-01-10T06:13:29;8.00;;;2.73;;
21192;SDS011;10754;51.106;7.164;2023-01-10T06:15:55;12.90;;;3.27;;
21192;SDS011;10754;51.106;7.164;2023-01-10T06:18:21;8.87;;;2.80;;
21192;SDS011;10754;51.106;7.164;2023-01-10T06:20:46;8.07;;;2.80;;
21192;SDS011;10754;51.106;7.164;2023-01-10T06:23:12;7.50;;;2.60;;
21192;SDS011;10754;51.106;7.164;2023-01-10T06:25:37;9.07;;;3.00;;
21192;SDS011;10754;51.106;7.164;2023-01-10T06:28:10;10.53;;;3.43;;
21192;SDS011;10754;51.106;7.164;2023-01-10T06:30:37;9.37;;;3.03;;
21192;SDS011;10754;51.106;7.164;2023-01-10T06:33:06;9.37;;;3.33;;
21192;SDS011;10754;51.106;7.164;2023-01-10T06:35:32;10.20;;;2.90;;
21192;SDS011;10754;51.106;7.164;2023-01-10T06:37:58;8.50;;;3.20;;
21192;SDS011;10754;51.106;7.164;2023-01-10T06:40:23;12.40;;;3.53;;
21192;SDS011;10754;51.106;7.164;2023-01-10T06:42:50;11.13;;;2.90;;
21192;SDS011;10754;51.106;7.164;2023-01-10T06:45:15;8.93;;;3.10;;
21192;SDS011;10754;51.106;7.164;2023-01-10T06:47:41;9.23;;;3.37;;
21192;SDS011;10754;51.106;7.164;2023-01-10T06:50:07;11.23;;;3.40;;
21192;SDS011;10754;51.106;7.164;2023-01-10T06:52:33;12.27;;;3.83;;
21192;SDS011;10754;51.106;7.164;2023-01-10T06:54:59;9.33;;;3.37;;
21192;SDS011;10754;51.106;7.164;2023-01-10T06:57:24;10.87;;;3.13;;
21192;SDS011;10754;51.106;7.164;2023-01-10T06:59:52;8.83;;;3.10;;
21192;SDS011;10754;51.106;7.164;2023-01-10T07:02:18;11.27;;;4.00;;
21192;SDS011;10754;51.106;7.164;2023-01-10T07:04:43;12.87;;;3.73;;
21192;SDS011;10754;51.106;7.164;2023-01-10T07:07:09;9.73;;;3.20;;
21192;SDS011;10754;51.106;7.164;2023-01-10T07:09:34;10.43;;;3.03;;
21192;SDS011;10754;51.106;7.164;2023-01-10T07:12:00;7.80;;;3.20;;
21192;SDS011;10754;51.106;7.164;2023-01-10T07:14:25;10.07;;;3.70;;
21192;SDS011;10754;51.106;7.164;2023-01-10T07:16:51;14.93;;;3.87;;
21192;SDS011;10754;51.106;7.164;2023-01-10T07:19:16;12.77;;;3.90;;
21192;SDS011;10754;51.106;7.164;2023-01-10T07:21:43;11.17;;;3.57;;
21192;SDS011;10754;51.106;7.164;2023-01-10T07:24:09;9.20;;;3.30;;
21192;SDS011;10754;51.106;7.164;2023-01-10T07:26:35;9.63;;;3.13;;
21192;SDS011;10754;51.106;7.164;2023-01-10T07:29:00;11.37;;;3.60;;
21192;SDS011;10754;51.106;7.164;2023-01-10T07:31:26;14.20;;;3.77;;
21192;SDS011;10754;51.106;7.164;2023-01-10T07:33:51;12.23;;;3.40;;
21192;SDS011;10754;51.106;7.164;2023-01-10T07:36:17;9.63;;;3.50;;
21192;SDS011;10754;51.106;7.164;2023-01-10T07:38:43;12.83;;;4.17;;
21192;SDS011;10754;51.106;7.164;2023-01-10T07:41:09;8.07;;;2.80;;
21192;SDS011;10754;51.106;7.164;2023-01-10T07:43:35;14.57;;;3.60;;
21192;SDS011;10754;51.106;7.164;2023-01-10T07:46:01;11.63;;;4.17;;
21192;SDS011;10754;51.106;7.164;2023-01-10T07:48:28;14.27;;;3.90;;
21192;SDS011;10754;51.106;7.164;2023-01-10T07:50:54;11.47;;;3.90;;
21192;SDS011;10754;51.106;7.164;2023-01-10T07:53:21;11.57;;;4.37;;
21192;SDS011;10754;51.106;7.164;2023-01-10T07:55:46;14.73;;;3.33;;
21192;SDS011;10754;51.106;7.164;2023-01-10T07:58:12;14.50;;;4.37;;
21192;SDS011;10754;51.106;7.164;2023-01-10T08:00:38;10.10;;;3.70;;
21192;SDS011;10754;51.106;7.164;2023-01-10T08:03:04;11.67;;;3.77;;
21192;SDS011;10754;51.106;7.164;2023-01-10T08:05:30;10.90;;;3.27;;
21192;SDS011;10754;51.106;7.164;2023-01-10T08:07:56;8.60;;;3.47;;
21192;SDS011;10754;51.106;7.164;2023-01-10T08:10:27;11.83;;;3.40;;
21192;SDS011;10754;51.106;7.164;2023-01-10T08:12:52;13.00;;;3.70;;
21192;SDS011;10754;51.106;7.164;2023-01-10T08:15:18;12.00;;;3.57;;
21192;SDS011;10754;51.106;7.164;2023-01-10T08:17:44;9.33;;;3.23;;
21192;SDS011;10754;51.106;7.164;2023-01-10T08:20:09;11.50;;;3.63;;
21192;SDS011;10754;51.106;7.164;2023-01-10T08:22:35;11.17;;;3.47;;
21192;SDS011;10754;51.106;7.164;2023-01-10T08:25:00;10.97;;;3.80;;
21192;SDS011;10754;51.106;7.164;2023-01-10T08:27:26;11.90;;;4.00;;
21192;SDS011;10754;51.106;7.164;2023-01-10T08:29:51;15.13;;;3.70;;
21192;SDS011;10754;51.106;7.164;2023-01-10T08:32:17;10.87;;;3.67;;
21192;SDS011;10754;51.106;7.164;2023-01-10T08:34:43;11.83;;;3.43;;
21192;SDS011;10754;51.106;7.164;2023-01-10T08:37:12;10.93;;;4.50;;
21192;SDS011;10754;51.106;7.164;2023-01-10T08:39:38;13.27;;;3.83;;
21192;SDS011;10754;51.106;7.164;2023-01-10T08:42:04;15.10;;;4.27;;
21192;SDS011;10754;51.106;7.164;2023-01-10T08:44:29;13.63;;;3.83;;
21192;SDS011;10754;51.106;7.164;2023-01-10T08:46:55;13.07;;;3.93;;
21192;SDS011;10754;51.106;7.164;2023-01-10T08:49:20;11.50;;;3.70;;
21192;SDS011;10754;51.106;7.164;2023-01-10T08:51:46;14.30;;;3.93;;
21192;SDS011;10754;51.106;7.164;2023-01-10T08:54:12;11.57;;;3.97;;
21192;SDS011;10754;51.106;7.164;2023-01-10T08:56:37;13.40;;;4.97;;
21192;SDS011;10754;51.106;7.164;2023-01-10T08:59:04;10.23;;;3.40;;
21192;SDS011;10754;51.106;7.164;2023-01-10T09:01:30;13.07;;;3.60;;
21192;SDS011;10754;51.106;7.164;2023-01-10T09:03:55;13.13;;;4.33;;
21192;SDS011;10754;51.106;7.164;2023-01-10T09:06:21;8.20;;;2.93;;
21192;SDS011;10754;51.106;7.164;2023-01-10T09:08:48;12.47;;;3.60;;
21192;SDS011;10754;51.106;7.164;2023-01-10T09:11:13;11.80;;;3.60;;
21192;SDS011;10754;51.106;7.164;2023-01-10T09:13:39;10.90;;;3.93;;
21192;SDS011;10754;51.106;7.164;2023-01-10T09:16:06;11.60;;;4.17;;
21192;SDS011;10754;51.106;7.164;2023-01-10T09:18:31;12.87;;;3.70;;
21192;SDS011;10754;51.106;7.164;2023-01-10T09:20:58;14.17;;;3.97;;
21192;SDS011;10754;51.106;7.164;2023-01-10T09:23:24;9.53;;;3.53;;
21192;SDS011;10754;51.106;7.164;2023-01-10T09:25:51;12.67;;;3.57;;
21192;SDS011;10754;51.106;7.164;2023-01-10T09:28:18;13.67;;;4.20;;
21192;SDS011;10754;51.106;7.164;2023-01-10T09:30:45;8.70;;;3.23;;
21192;SDS011;10754;51.106;7.164;2023-01-10T09:33:11;12.90;;;3.90;;
21192;SDS011;10754;51.106;7.164;2023-01-10T09:35:37;18.10;;;4.60;;
21192;SDS011;10754;51.106;7.164;2023-01-10T09:38:04;11.93;;;3.27;;
21192;SDS011;10754;51.106;7.164;2023-01-10T09:51:48;10.37;;;3.27;;
21192;SDS011;10754;51.106;7.164;2023-01-10T09:54:25;13.77;;;3.97;;
21192;SDS011;10754;51.106;7.164;2023-01-10T09:56:59;9.67;;;3.07;;
21192;SDS011;10754;51.106;7.164;2023-01-10T09:59:30;13.57;;;3.83;;
21192;SDS011;10754;51.106;7.164;2023-01-10T10:02:22;9.73;;;3.00;;
21192;SDS011;10754;51.106;7.164;2023-01-10T10:04:59;11.37;;;3.57;;
21192;SDS011;10754;51.106;7.164;2023-01-10T10:07:28;14.23;;;3.63;;
21192;SDS011;10754;51.106;7.164;2023-01-10T10:09:54;11.10;;;3.80;;
21192;SDS011;10754;51.106;7.164;2023-01-10T10:12:25;13.90;;;4.00;;
21192;SDS011;10754;51.106;7.164;2023-01-10T10:15:08;12.47;;;4.13;;
21192;SDS011;10754;51.106;7.164;2023-01-10T10:18:13;13.57;;;3.83;;
21192;SDS011;10754;51.106;7.164;2023-01-10T10:26:57;12.13;;;3.27;;
21192;SDS011;10754;51.106;7.164;2023-01-10T10:32:25;13.37;;;3.43;;
21192;SDS011;10754;51.106;7.164;2023-01-10T10:34:56;12.83;;;4.43;;
21192;SDS011;10754;51.106;7.164;2023-01-10T10:37:26;11.37;;;4.03;;
21192;SDS011;10754;51.106;7.164;2023-01-10T10:40:04;10.90;;;3.17;;
21192;SDS011;10754;51.106;7.164;2023-01-10T10:42:44;11.93;;;3.23;;
21192;SDS011;10754;51.106;7.164;2023-01-10T10:45:21;10.13;;;3.50;;
21192;SDS011;10754;51.106;7.164;2023-01-10T10:48:22;10.27;;;3.13;;
21192;SDS011;10754;51.106;7.164;2023-01-10T10:51:07;10.73;;;3.33;;
21192;SDS011;10754;51.106;7.164;2023-01-10T10:53:45;9.30;;;3.43;;
21192;SDS011;10754;51.106;7.164;2023-01-10T10:56:12;10.20;;;3.13;;
21192;SDS011;10754;51.106;7.164;2023-01-10T10:58:43;6.97;;;2.70;;
21192;SDS011;10754;51.106;7.164;2023-01-10T11:01:12;9.27;;;3.23;;
21192;SDS011;10754;51.106;7.164;2023-01-10T11:03:40;10.87;;;3.07;;
21192;SDS011;10754;51.106;7.164;2023-01-10T11:06:10;9.50;;;2.93;;
21192;SDS011;10754;51.106;7.164;2023-01-10T11:08:38;8.07;;;3.07;;
21192;SDS011;10754;51.106;7.164;2023-01-10T11:11:14;9.43;;;3.10;;
21192;SDS011;10754;51.106;7.164;2023-01-10T11:13:56;16.87;;;3.23;;
21192;SDS011;10754;51.106;7.164;2023-01-10T11:16:24;9.43;;;3.13;;
21192;SDS011;10754;51.106;7.164;2023-01-10T11:21:44;8.47;;;2.97;;
21192;SDS011;10754;51.106;7.164;2023-01-10T11:24:18;9.50;;;3.00;;
21192;SDS011;10754;51.106;7.164;2023-01-10T11:26:56;8.70;;;2.40;;
21192;SDS011;10754;51.106;7.164;2023-01-10T11:29:25;8.60;;;2.97;;
21192;SDS011;10754;51.106;7.164;2023-01-10T11:32:14;7.67;;;2.33;;
21192;SDS011;10754;51.106;7.164;2023-01-10T11:34:46;10.90;;;3.73;;
21192;SDS011;10754;51.106;7.164;2023-01-10T11:37:28;10.70;;;3.37;;
21192;SDS011;10754;51.106;7.164;2023-01-10T11:42:40;8.87;;;3.00;;
21192;SDS011;10754;51.106;7.164;2023-01-10T11:47:45;9.80;;;2.63;;
21192;SDS011;10754;51.106;7.164;2023-01-10T11:50:17;9.83;;;2.67;;
21192;SDS011;10754;51.106;7.164;2023-01-10T11:52:45;8.83;;;2.30;;
21192;SDS011;10754;51.106;7.164;2023-01-10T11:55:16;10.10;;;2.77;;
21192;SDS011;10754;51.106;7.164;2023-01-10T11:58:09;9.10;;;2.67;;
21192;SDS011;10754;51.106;7.164;2023-01-10T12:03:14;9.47;;;3.40;;
21192;SDS011;10754;51.106;7.164;2023-01-10T12:05:53;7.80;;;2.20;;
21192;SDS011;10754;51.106;7.164;2023-01-10T12:08:27;7.73;;;2.50;;
21192;SDS011;10754;51.106;7.164;2023-01-10T12:10:56;9.93;;;2.77;;
21192;SDS011;10754;51.106;7.164;2023-01-10T12:13:26;11.97;;;3.13;;
21192;SDS011;10754;51.106;7.164;2023-01-10T12:15:52;6.73;;;2.53;;
21192;SDS011;10754;51.106;7.164;2023-01-10T12:18:50;6.57;;;2.20;;
21192;SDS011;10754;51.106;7.164;2023-01-10T12:21:25;5.83;;;2.23;;
21192;SDS011;10754;51.106;7.164;2023-01-10T12:24:15;7.80;;;2.47;;
21192;SDS011;10754;51.106;7.164;2023-01-10T12:26:41;8.80;;;2.40;;
21192;SDS011;10754;51.106;7.164;2023-01-10T12:29:14;8.97;;;2.80;;
21192;SDS011;10754;51.106;7.164;2023-01-10T12:31:43;7.63;;;2.77;;
21192;SDS011;10754;51.106;7.164;2023-01-10T12:34:13;7.87;;;2.60;;
21192;SDS011;10754;51.106;7.164;2023-01-10T12:36:48;9.90;;;3.17;;
21192;SDS011;10754;51.106;7.164;2023-01-10T12:39:22;6.97;;;2.40;;
21192;SDS011;10754;51.106;7.164;2023-01-10T12:42:02;8.87;;;2.70;;
21192;SDS011;10754;51.106;7.164;2023-01-10T12:50:36;6.73;;;2.10;;
21192;SDS011;10754;51.106;7.164;2023-01-10T12:55:56;7.80;;;2.77;;
21192;SDS011;10754;51.106;7.164;2023-01-10T12:58:27;5.53;;;2.50;;
21192;SDS011;10754;51.106;7.164;2023-01-10T13:01:02;6.90;;;2.40;;
21192;SDS011;10754;51.106;7.164;2023-01-10T13:03:30;7.10;;;2.70;;
21192;SDS011;10754;51.106;7.164;2023-01-10T13:05:57;6.30;;;2.60;;
21192;SDS011;10754;51.106;7.164;2023-01-10T13:08:27;8.33;;;2.40;;
21192;SDS011;10754;51.106;7.164;2023-01-10T13:10:56;8.70;;;2.80;;
21192;SDS011;10754;51.106;7.164;2023-01-10T13:18:30;4.97;;;1.93;;
21192;SDS011;10754;51.106;7.164;2023-01-10T13:21:03;8.73;;;2.30;;
21192;SDS011;10754;51.106;7.164;2023-01-10T13:23:33;5.93;;;2.10;;
21192;SDS011;10754;51.106;7.164;2023-01-10T13:26:04;14.93;;;3.70;;
21192;SDS011;10754;51.106;7.164;2023-01-10T13:28:33;6.50;;;2.43;;
21192;SDS011;10754;51.106;7.164;2023-01-10T13:31:02;7.30;;;2.50;;
21192;SDS011;10754;51.106;7.164;2023-01-10T13:33:32;5.83;;;2.00;;
21192;SDS011;10754;51.106;7.164;2023-01-10T13:36:25;7.97;;;2.40;;
21192;SDS011;10754;51.106;7.164;2023-01-10T13:38:52;6.83;;;2.00;;
21192;SDS011;10754;51.106;7.164;2023-01-10T13:41:24;7.90;;;2.50;;
21192;SDS011;10754;51.106;7.164;2023-01-10T13:55:27;6.03;;;2.23;;
21192;SDS011;10754;51.106;7.164;2023-01-10T14:01:26;7.70;;;2.50;;
21192;SDS011;10754;51.106;7.164;2023-01-10T14:04:22;6.73;;;2.10;;
21192;SDS011;10754;51.106;7.164;2023-01-10T14:06:58;11.43;;;2.60;;
21192;SDS011;10754;51.106;7.164;2023-01-10T14:11:59;9.77;;;2.27;;
21192;SDS011;10754;51.106;7.164;2023-01-10T14:16:56;7.57;;;2.40;;
21192;SDS011;10754;51.106;7.164;2023-01-10T14:19:34;7.33;;;2.50;;
21192;SDS011;10754;51.106;7.164;2023-01-10T14:22:00;11.43;;;3.47;;
21192;SDS011;10754;51.106;7.164;2023-01-10T14:26:57;6.43;;;2.10;;
21192;SDS011;10754;51.106;7.164;2023-01-10T14:29:26;9.97;;;3.07;;
21192;SDS011;10754;51.106;7.164;2023-01-10T14:31:56;6.63;;;2.07;;
21192;SDS011;10754;51.106;7.164;2023-01-10T14:34:30;5.37;;;2.17;;
21192;SDS011;10754;51.106;7.164;2023-01-10T14:37:02;7.07;;;2.23;;
21192;SDS011;10754;51.106;7.164;2023-01-10T14:39:32;7.87;;;2.23;;
21192;SDS011;10754;51.106;7.164;2023-01-10T14:42:04;8.33;;;2.47;;
21192;SDS011;10754;51.106;7.164;2023-01-10T14:44:43;7.93;;;2.27;;
21192;SDS011;10754;51.106;7.164;2023-01-10T14:47:47;6.73;;;2.40;;
21192;SDS011;10754;51.106;7.164;2023-01-10T14:50:21;5.37;;;2.07;;
21192;SDS011;10754;51.106;7.164;2023-01-10T14:52:55;7.73;;;2.53;;
21192;SDS011;10754;51.106;7.164;2023-01-10T14:55:20;5.87;;;2.40;;
21192;SDS011;10754;51.106;7.164;2023-01-10T14:57:56;7.83;;;2.27;;
21192;SDS011;10754;51.106;7.164;2023-01-10T15:00:32;7.03;;;2.60;;
21192;SDS011;10754;51.106;7.164;2023-01-10T15:03:00;8.33;;;1.97;;
21192;SDS011;10754;51.106;7.164;2023-01-10T15:05:29;5.63;;;2.17;;
21192;SDS011;10754;51.106;7.164;2023-01-10T15:08:21;7.17;;;2.13;;
21192;SDS011;10754;51.106;7.164;2023-01-10T15:10:49;7.70;;;2.20;;
21192;SDS011;10754;51.106;7.164;2023-01-10T15:13:19;10.67;;;2.93;;
21192;SDS011;10754;51.106;7.164;2023-01-10T15:15:47;8.03;;;2.80;;
21192;SDS011;10754;51.106;7.164;2023-01-10T15:18:32;8.97;;;2.77;;
21192;SDS011;10754;51.106;7.164;2023-01-10T15:21:00;6.30;;;2.03;;
21192;SDS011;10754;51.106;7.164;2023-01-10T15:23:32;9.87;;;2.97;;
21192;SDS011;10754;51.106;7.164;2023-01-10T15:26:04;7.23;;;2.27;;
21192;SDS011;10754;51.106;7.164;2023-01-10T15:28:34;5.87;;;2.47;;
21192;SDS011;10754;51.106;7.164;2023-01-10T15:31:00;8.60;;;2.77;;
21192;SDS011;10754;51.106;7.164;2023-01-10T15:33:29;7.23;;;2.13;;
21192;SDS011;10754;51.106;7.164;2023-01-10T15:36:02;7.27;;;2.30;;
21192;SDS011;10754;51.106;7.164;2023-01-10T15:38:37;8.10;;;2.73;;
21192;SDS011;10754;51.106;7.164;2023-01-10T15:41:08;8.37;;;2.27;;
21192;SDS011;10754;51.106;7.164;2023-01-10T15:43:39;9.40;;;3.30;;
21192;SDS011;10754;51.106;7.164;2023-01-10T15:46:05;7.53;;;2.90;;
21192;SDS011;10754;51.106;7.164;2023-01-10T15:48:42;9.00;;;3.03;;
21192;SDS011;10754;51.106;7.164;2023-01-10T15:54:00;8.27;;;3.23;;
21192;SDS011;10754;51.106;7.164;2023-01-10T15:56:37;5.17;;;2.37;;
21192;SDS011;10754;51.106;7.164;2023-01-10T15:59:18;10.73;;;2.97;;
21192;SDS011;10754;51.106;7.164;2023-01-10T16:02:17;6.23;;;2.90;;
21192;SDS011;10754;51.106;7.164;2023-01-10T16:04:47;7.93;;;3.87;;
21192;SDS011;10754;51.106;7.164;2023-01-10T16:07:24;9.17;;;3.00;;
21192;SDS011;10754;51.106;7.164;2023-01-10T16:12:33;8.23;;;2.70;;
21192;SDS011;10754;51.106;7.164;2023-01-10T16:15:23;9.23;;;2.77;;
21192;SDS011;10754;51.106;7.164;2023-01-10T16:17:50;8.67;;;3.13;;
21192;SDS011;10754;51.106;7.164;2023-01-10T16:20:17;8.37;;;2.83;;
21192;SDS011;10754;51.106;7.164;2023-01-10T16:22:49;10.20;;;2.63;;
21192;SDS011;10754;51.106;7.164;2023-01-10T16:25:17;7.40;;;2.53;;
21192;SDS011;10754;51.106;7.164;2023-01-10T16:27:47;4.57;;;2.00;;
21192;SDS011;10754;51.106;7.164;2023-01-10T16:30:14;8.53;;;2.83;;
21192;SDS011;10754;51.106;7.164;2023-01-10T16:32:47;8.50;;;3.77;;
21192;SDS011;10754;51.106;7.164;2023-01-10T16:35:12;9.93;;;3.20;;